Thackerville, Oklahoma
Current Conditions -  °F | °C
As of 8:15 AM on Friday 19 Dec 2014 (Local Time) from KGLE Reporting Station
Haze Haze  
Wind Chill: 37°   Ceiling: 200
Heat Index: 42°   Visibility: 1.5mi
Dew Point: 42°   Wind: 8mph
Humidity: 99%   Direction: 360°N
Pressure: 30.22"   Gusts: NA
Location:  33.79°N, 97.14°W
Report Text: KGLE 191415Z AUTO 36007KT 1 1/2SM BR OVC002 06/06 A3022 RMK AO2 T00560055
Loading
Personal Weather Stations






























Interactive Weather Map New forecast layout! Learn more

10-Day Weather Forecast

Advertisements
Track Severe Weather on mobile